createdAt,value
2018-05-11T00:01:20.038Z,33.83
2018-05-11T00:03:47.782Z,36.93
2018-05-11T00:06:15.379Z,39.57
2018-05-11T00:08:42.921Z,33.20
2018-05-11T00:11:10.998Z,37.77
2018-05-11T00:13:38.537Z,33.53
2018-05-11T00:16:06.843Z,32.50
2018-05-11T00:18:34.420Z,39.90
2018-05-11T00:21:01.970Z,37.23
2018-05-11T00:23:29.605Z,34.73
2018-05-11T00:25:57.132Z,38.40
2018-05-11T00:28:27.601Z,36.40
2018-05-11T00:30:55.791Z,37.67
2018-05-11T00:33:23.608Z,41.00
2018-05-11T00:35:51.733Z,31.93
2018-05-11T00:38:19.284Z,39.03
2018-05-11T00:40:46.856Z,33.80
2018-05-11T00:43:14.398Z,36.10
2018-05-11T00:45:41.991Z,35.27
2018-05-11T00:48:09.905Z,30.98
2018-05-11T00:50:37.503Z,32.37
2018-05-11T00:53:05.052Z,29.20
2018-05-11T00:55:44.255Z,32.43
2018-05-11T00:58:11.797Z,35.45
2018-05-11T01:00:39.381Z,43.67
2018-05-11T01:03:06.944Z,36.38
2018-05-11T01:05:34.472Z,37.87
2018-05-11T01:08:02.067Z,36.72
2018-05-11T01:10:30.181Z,40.33
2018-05-11T01:12:58.183Z,36.53
2018-05-11T01:15:25.744Z,38.50
2018-05-11T01:17:53.318Z,38.57
2018-05-11T01:20:20.895Z,32.67
2018-05-11T01:22:48.449Z,37.57
2018-05-11T01:25:15.994Z,34.90
2018-05-11T01:27:43.546Z,40.47
2018-05-11T01:30:11.580Z,36.35
2018-05-11T01:32:39.152Z,42.90
2018-05-11T01:35:07.133Z,37.23
2018-05-11T01:37:35.081Z,38.90
2018-05-11T01:40:03.050Z,34.90
2018-05-11T01:42:30.616Z,37.53
2018-05-11T01:44:58.552Z,40.97
2018-05-11T01:47:26.099Z,40.00
2018-05-11T01:49:53.672Z,32.83
2018-05-11T01:52:21.251Z,40.83
2018-05-11T01:54:48.803Z,32.40
2018-05-11T01:57:16.395Z,34.83
2018-05-11T01:59:44.379Z,30.13
2018-05-11T02:02:12.362Z,30.97
2018-05-11T02:04:39.907Z,35.33
2018-05-11T02:07:07.515Z,26.50
2018-05-11T02:09:35.052Z,26.00
2018-05-11T02:12:02.672Z,31.95
2018-05-11T02:14:30.276Z,30.33
2018-05-11T02:16:57.885Z,27.50
2018-05-11T02:19:25.865Z,26.30
2018-05-11T02:21:53.793Z,24.23
2018-05-11T02:24:21.329Z,31.33
2018-05-11T02:26:48.906Z,22.30
2018-05-11T02:29:16.448Z,23.03
2018-05-11T02:31:43.993Z,24.70
2018-05-11T02:34:11.560Z,25.70
2018-05-11T02:36:39.128Z,25.77
2018-05-11T02:39:06.672Z,22.90
2018-05-11T02:41:34.735Z,27.37
2018-05-11T02:44:02.339Z,33.50
2018-05-11T02:46:29.918Z,24.73
2018-05-11T02:48:58.313Z,23.37
2018-05-11T02:51:27.126Z,22.73
2018-05-11T02:53:54.875Z,25.27
2018-05-11T02:56:22.481Z,21.77
2018-05-11T02:58:50.468Z,23.33
2018-05-11T03:01:18.046Z,28.97
2018-05-11T03:03:46.140Z,23.73
2018-05-11T03:06:15.211Z,24.30
2018-05-11T03:08:44.003Z,27.15
2018-05-11T03:11:12.771Z,25.08
2018-05-11T03:13:40.415Z,30.27
2018-05-11T03:16:08.616Z,22.10
2018-05-11T03:18:39.484Z,28.97
2018-05-11T03:21:08.128Z,28.10
2018-05-11T03:23:36.335Z,29.83
2018-05-11T03:26:04.221Z,32.58
2018-05-11T03:28:33.791Z,29.73
2018-05-11T03:31:02.163Z,29.03
2018-05-11T03:33:30.757Z,28.08
2018-05-11T03:35:58.365Z,32.13
2018-05-11T03:38:26.600Z,35.00
2018-05-11T03:40:54.809Z,33.28
2018-05-11T03:43:24.022Z,30.48
2018-05-11T03:45:53.880Z,30.27
2018-05-11T03:48:21.470Z,42.23
2018-05-11T03:50:49.087Z,29.20
2018-05-11T03:53:17.452Z,31.92
2018-05-11T03:55:45.075Z,32.00
2018-05-11T03:58:12.647Z,33.30
2018-05-11T04:00:41.800Z,33.50
2018-05-11T04:03:29.257Z,35.30
2018-05-11T04:06:04.256Z,30.75
2018-05-11T04:08:43.475Z,39.30
2018-05-11T04:11:11.689Z,31.73
2018-05-11T04:13:39.733Z,32.70
2018-05-11T04:16:08.040Z,35.80
2018-05-11T04:18:36.047Z,33.10
2018-05-11T04:21:04.160Z,34.85
2018-05-11T04:23:32.931Z,30.65
2018-05-11T04:26:01.739Z,31.73
2018-05-11T04:28:30.106Z,28.73
2018-05-11T04:30:58.621Z,30.60
2018-05-11T04:33:26.941Z,25.37
2018-05-11T04:35:55.349Z,27.60
2018-05-11T04:38:23.719Z,29.07
2018-05-11T04:40:52.084Z,34.17
2018-05-11T04:43:20.480Z,27.00
2018-05-11T04:45:49.214Z,23.15
2018-05-11T04:48:17.380Z,21.23
2018-05-11T04:50:45.652Z,19.05
2018-05-11T04:53:14.061Z,18.57
2018-05-11T04:55:42.656Z,18.20
2018-05-11T04:58:11.038Z,25.73
2018-05-11T05:00:39.062Z,27.33
2018-05-11T05:03:07.511Z,18.10
2018-05-11T05:05:35.890Z,16.90
2018-05-11T05:08:04.339Z,19.70
2018-05-11T05:10:32.765Z,18.90
2018-05-11T05:13:01.203Z,17.23
2018-05-11T05:15:29.736Z,16.83
2018-05-11T05:18:01.198Z,20.77
2018-05-11T05:20:29.313Z,21.47
2018-05-11T05:22:57.701Z,21.43
2018-05-11T05:25:25.795Z,20.73
2018-05-11T05:27:54.318Z,23.87
2018-05-11T05:30:23.728Z,19.47
2018-05-11T05:32:52.247Z,19.63
2018-05-11T05:35:20.567Z,23.23
2018-05-11T05:37:48.855Z,20.80
2018-05-11T05:40:17.514Z,25.60
2018-05-11T05:42:45.768Z,21.57
2018-05-11T05:45:13.617Z,20.83
2018-05-11T05:47:41.893Z,20.63
2018-05-11T05:50:10.431Z,18.37
2018-05-11T05:52:38.624Z,23.00
2018-05-11T05:55:07.197Z,22.77
2018-05-11T05:57:35.521Z,24.73
2018-05-11T06:00:03.749Z,26.30
2018-05-11T06:02:32.138Z,19.60
2018-05-11T06:05:00.097Z,20.05
2018-05-11T06:07:28.451Z,19.10
2018-05-11T06:09:56.541Z,22.35
2018-05-11T06:12:24.494Z,20.80
2018-05-11T06:14:52.659Z,22.87
2018-05-11T06:17:21.101Z,24.70
2018-05-11T06:19:49.155Z,18.35
2018-05-11T06:22:17.116Z,25.65
2018-05-11T06:24:45.438Z,34.55
2018-05-11T06:27:13.727Z,17.97
2018-05-11T06:29:42.033Z,16.80
2018-05-11T06:32:10.758Z,23.43
2018-05-11T06:34:38.706Z,20.97
2018-05-11T06:37:07.149Z,19.30
2018-05-11T06:39:34.951Z,22.73
2018-05-11T06:42:02.639Z,22.07
2018-05-11T06:44:30.257Z,19.80
2018-05-11T06:46:57.988Z,22.23
2018-05-11T06:49:26.300Z,22.73
2018-05-11T06:51:54.534Z,22.13
2018-05-11T06:54:22.872Z,22.75
2018-05-11T06:56:51.305Z,20.83
2018-05-11T06:59:19.067Z,18.23
2018-05-11T07:01:47.796Z,21.97
2018-05-11T07:04:16.103Z,19.87
2018-05-11T07:06:44.459Z,18.70
2018-05-11T07:09:12.380Z,20.33
2018-05-11T07:11:42.062Z,18.65
2018-05-11T07:14:11.003Z,16.93
2018-05-11T07:16:38.824Z,17.77
2018-05-11T07:19:06.933Z,20.90
2018-05-11T07:21:34.477Z,17.80
2018-05-11T07:24:02.071Z,19.40
2018-05-11T07:26:29.631Z,20.97
2018-05-11T07:28:57.181Z,17.80
2018-05-11T07:31:24.772Z,17.80
2018-05-11T07:33:53.037Z,24.77
2018-05-11T07:36:21.323Z,22.73
2018-05-11T07:38:49.444Z,16.87
2018-05-11T07:41:17.435Z,17.55
2018-05-11T07:43:45.713Z,20.67
2018-05-11T07:46:14.517Z,17.17
2018-05-11T07:48:42.723Z,18.40
2018-05-11T07:51:10.631Z,16.33
2018-05-11T07:53:39.135Z,18.50
2018-05-11T07:56:07.397Z,18.15
2018-05-11T07:58:35.385Z,17.80
2018-05-11T08:01:03.802Z,23.23
2018-05-11T08:03:32.058Z,20.43
2018-05-11T08:06:00.634Z,16.58
2018-05-11T08:08:28.617Z,16.25
2018-05-11T08:10:57.187Z,17.60
2018-05-11T08:13:25.204Z,17.00
2018-05-11T08:15:53.617Z,16.67
2018-05-11T08:18:21.361Z,14.47
2018-05-11T08:20:49.049Z,17.37
2018-05-11T08:23:17.346Z,17.27
2018-05-11T08:25:45.516Z,15.93
2018-05-11T08:28:13.669Z,14.47
2018-05-11T08:30:42.383Z,15.07
2018-05-11T08:33:10.939Z,16.63
2018-05-11T08:35:38.876Z,17.57
2018-05-11T08:38:06.832Z,17.73
2018-05-11T08:40:35.135Z,16.27
2018-05-11T08:43:03.377Z,15.87
2018-05-11T08:45:31.688Z,16.13
2018-05-11T08:47:59.338Z,16.63
2018-05-11T08:50:27.561Z,19.23
2018-05-11T08:52:55.383Z,17.57
2018-05-11T08:55:24.154Z,16.70
2018-05-11T08:57:52.507Z,16.25
2018-05-11T09:00:22.121Z,17.50
2018-05-11T09:02:50.798Z,15.43
2018-05-11T09:05:19.245Z,17.20
2018-05-11T09:07:47.033Z,13.47
2018-05-11T09:10:15.157Z,15.30
2018-05-11T09:12:43.659Z,21.17
2018-05-11T09:15:11.976Z,16.47
2018-05-11T09:17:41.422Z,15.77
2018-05-11T09:20:09.818Z,13.90
2018-05-11T09:22:38.411Z,13.70
2018-05-11T09:25:06.398Z,13.85
2018-05-11T09:27:34.467Z,13.93
2018-05-11T09:30:02.838Z,12.30
2018-05-11T09:32:30.938Z,11.37
2018-05-11T09:34:59.162Z,13.40
2018-05-11T09:37:27.443Z,13.77
2018-05-11T09:39:55.822Z,12.43
2018-05-11T09:42:24.199Z,12.13
2018-05-11T09:44:52.244Z,13.23
2018-05-11T09:47:20.550Z,10.57
2018-05-11T09:49:48.564Z,11.37
2018-05-11T09:52:16.984Z,12.40
2018-05-11T09:54:44.743Z,13.80
2018-05-11T09:57:13.097Z,11.80
2018-05-11T09:59:41.111Z,11.00
2018-05-11T10:02:08.815Z,10.17
2018-05-11T10:04:37.055Z,10.20
2018-05-11T10:07:05.447Z,9.67
2018-05-11T10:09:33.652Z,15.67
2018-05-11T10:12:01.507Z,9.93
2018-05-11T10:14:29.702Z,8.57
2018-05-11T10:16:57.582Z,10.03
2018-05-11T10:19:25.303Z,9.30
2018-05-11T10:21:53.096Z,8.07
2018-05-11T10:24:20.676Z,9.17
2018-05-11T10:26:49.051Z,7.77
2018-05-11T10:29:17.028Z,10.13
2018-05-11T10:31:44.944Z,9.75
2018-05-11T10:34:12.980Z,9.80
2018-05-11T10:36:41.075Z,9.20
2018-05-11T10:39:09.315Z,8.40
2018-05-11T10:41:37.730Z,10.43
2018-05-11T10:44:06.110Z,11.33
2018-05-11T10:46:33.941Z,13.40
2018-05-11T10:49:02.486Z,11.17
2018-05-11T10:51:30.563Z,8.13
2018-05-11T10:53:59.084Z,11.80
2018-05-11T10:56:27.215Z,11.73
2018-05-11T10:58:55.627Z,7.37
2018-05-11T11:01:23.338Z,6.57
2018-05-11T11:03:51.429Z,11.00
2018-05-11T11:06:19.703Z,8.40
2018-05-11T11:08:47.579Z,6.30
2018-05-11T11:11:15.205Z,7.50
2018-05-11T11:13:51.409Z,9.30
2018-05-11T11:16:50.946Z,8.73
2018-05-11T11:19:19.440Z,7.83
2018-05-11T11:22:03.069Z,7.70
2018-05-11T11:24:35.899Z,8.13
2018-05-11T11:27:09.380Z,8.57
2018-05-11T11:29:45.666Z,8.70
2018-05-11T11:32:19.824Z,7.43
2018-05-11T11:34:50.402Z,6.00
2018-05-11T11:37:24.533Z,5.80
2018-05-11T11:39:57.288Z,7.97
2018-05-11T11:42:25.913Z,5.20
2018-05-11T11:44:54.561Z,5.30
2018-05-11T11:50:35.092Z,6.60
2018-05-11T11:53:02.665Z,5.13
2018-05-11T11:55:30.239Z,6.13
2018-05-11T11:57:58.269Z,5.45
2018-05-11T12:00:25.817Z,5.87
2018-05-11T12:02:53.393Z,5.60
2018-05-11T12:05:20.961Z,9.13
2018-05-11T12:07:48.552Z,7.60
2018-05-11T12:10:16.185Z,4.20
2018-05-11T12:12:43.763Z,4.93
2018-05-11T12:15:11.365Z,5.20
2018-05-11T12:17:38.948Z,6.43
2018-05-11T12:20:06.550Z,6.50
2018-05-11T12:22:40.203Z,5.66
2018-05-11T12:25:08.628Z,6.12
2018-05-11T12:27:37.180Z,5.30
2018-05-11T12:30:05.426Z,6.10
2018-05-11T12:32:33.983Z,6.70
2018-05-11T12:35:01.728Z,6.83
2018-05-11T12:37:29.744Z,6.10
2018-05-11T12:39:57.359Z,6.25
2018-05-11T12:42:26.176Z,7.43
2018-05-11T12:44:56.321Z,7.97
2018-05-11T12:47:38.966Z,6.30
2018-05-11T12:50:06.574Z,7.60
2018-05-11T12:52:34.188Z,6.23
2018-05-11T12:55:01.745Z,7.30
2018-05-11T12:57:29.359Z,7.57
2018-05-11T12:59:57.001Z,7.43
2018-05-11T13:02:24.925Z,10.10
2018-05-11T13:04:52.559Z,6.30
2018-05-11T13:07:20.160Z,9.43
2018-05-11T13:09:47.773Z,6.45
2018-05-11T13:12:15.315Z,5.60
2018-05-11T13:14:42.842Z,6.70
2018-05-11T13:17:17.857Z,5.80
2018-05-11T13:19:45.390Z,5.17
2018-05-11T13:22:12.937Z,6.40
2018-05-11T13:24:40.485Z,6.20
2018-05-11T13:27:08.086Z,6.47
2018-05-11T13:29:35.610Z,9.30
2018-05-11T13:32:03.203Z,5.60
2018-05-11T13:34:30.749Z,6.85
2018-05-11T13:36:58.342Z,6.13
2018-05-11T13:39:26.821Z,6.33
2018-05-11T13:41:54.403Z,5.87
2018-05-11T13:44:23.094Z,6.73
2018-05-11T13:46:51.894Z,9.20
2018-05-11T13:49:19.882Z,8.30
2018-05-11T13:51:47.442Z,6.30
2018-05-11T13:54:14.999Z,5.57
2018-05-11T13:56:42.577Z,6.90
2018-05-11T13:59:10.161Z,6.27
2018-05-11T14:01:37.704Z,5.90
2018-05-11T14:04:05.304Z,6.23
2018-05-11T14:06:32.862Z,7.43
2018-05-11T14:09:00.417Z,5.97
2018-05-11T14:11:28.381Z,9.40
2018-05-11T14:13:57.788Z,6.05
2018-05-11T14:16:26.210Z,6.83
2018-05-11T14:18:53.747Z,7.93
2018-05-11T14:21:21.811Z,5.72
2018-05-11T14:23:49.756Z,6.00
2018-05-11T14:26:17.354Z,5.73
2018-05-11T14:28:45.308Z,9.53
2018-05-11T14:31:13.281Z,5.93
2018-05-11T14:33:41.129Z,6.60
2018-05-11T14:36:08.739Z,7.32
2018-05-11T14:38:36.322Z,5.70
2018-05-11T14:41:04.800Z,5.77
2018-05-11T14:43:32.340Z,6.70
2018-05-11T14:45:59.880Z,6.03
2018-05-11T14:48:29.227Z,6.17
2018-05-11T14:50:56.850Z,8.43
2018-05-11T14:53:29.041Z,6.37
2018-05-11T14:55:56.855Z,10.85
2018-05-11T14:58:24.537Z,7.20
2018-05-11T15:00:54.464Z,6.67
2018-05-11T15:03:22.099Z,6.60
2018-05-11T15:05:49.797Z,7.55
2018-05-11T15:08:17.532Z,5.93
2018-05-11T15:10:45.481Z,7.70
2018-05-11T15:13:13.653Z,7.25
2018-05-11T15:15:41.389Z,7.30
2018-05-11T15:18:14.833Z,6.45
2018-05-11T15:20:42.765Z,7.10
2018-05-11T15:23:10.399Z,7.97
2018-05-11T15:25:37.973Z,10.60
2018-05-11T15:28:05.622Z,7.43
2018-05-11T15:30:33.179Z,7.15
2018-05-11T15:33:00.772Z,6.60
2018-05-11T15:35:28.340Z,6.40
2018-05-11T15:37:55.913Z,7.40
2018-05-11T15:40:24.293Z,7.43
2018-05-11T15:42:51.833Z,6.57
2018-05-11T15:45:19.392Z,7.07
2018-05-11T15:47:46.978Z,7.17
2018-05-11T15:50:15.087Z,7.10
2018-05-11T15:52:42.676Z,6.45
2018-05-11T15:55:10.442Z,6.93
2018-05-11T15:57:39.377Z,9.47
2018-05-11T16:00:07.347Z,6.60
2018-05-11T16:02:35.332Z,7.40
2018-05-11T16:05:02.923Z,7.57
2018-05-11T16:07:30.556Z,7.50
2018-05-11T16:09:58.716Z,10.33
2018-05-11T16:12:26.281Z,6.87
2018-05-11T16:14:53.927Z,7.90
2018-05-11T16:17:21.484Z,9.33
2018-05-11T16:19:49.458Z,8.50
2018-05-11T16:22:17.380Z,8.90
2018-05-11T16:24:44.984Z,9.37
2018-05-11T16:27:12.964Z,8.23
2018-05-11T16:29:40.657Z,8.45
2018-05-11T16:32:08.215Z,6.87
2018-05-11T16:34:35.846Z,6.90
2018-05-11T16:37:03.485Z,8.37
2018-05-11T16:39:31.110Z,10.60
2018-05-11T16:41:58.683Z,6.63
2018-05-11T16:44:26.252Z,7.00
2018-05-11T16:46:53.863Z,6.87
2018-05-11T16:49:21.414Z,8.43
2018-05-11T16:51:50.265Z,7.30
2018-05-11T16:54:17.844Z,8.10
2018-05-11T16:56:46.283Z,7.07
2018-05-11T16:59:17.522Z,8.03
2018-05-11T17:01:45.108Z,7.57
2018-05-11T17:04:12.689Z,6.47
2018-05-11T17:06:40.668Z,6.87
2018-05-11T17:09:08.698Z,6.73
2018-05-11T17:11:36.301Z,7.30
2018-05-11T17:14:04.335Z,7.03
2018-05-11T17:16:31.977Z,8.00
2018-05-11T17:18:59.514Z,7.60
2018-05-11T17:21:27.076Z,9.00
2018-05-11T17:23:54.661Z,13.73
2018-05-11T17:26:22.281Z,7.80
2018-05-11T17:28:49.931Z,11.30
2018-05-11T17:31:17.890Z,8.40
2018-05-11T17:33:46.027Z,8.57
2018-05-11T17:36:13.576Z,7.87
2018-05-11T17:38:41.156Z,6.13
2018-05-11T17:41:08.756Z,7.50
2018-05-11T17:43:36.691Z,9.33
2018-05-11T17:46:04.836Z,7.10
2018-05-11T17:48:32.472Z,6.93
2018-05-11T17:51:00.001Z,7.60
2018-05-11T17:53:27.969Z,7.13
2018-05-11T17:55:55.509Z,7.90
2018-05-11T17:58:23.035Z,7.47
2018-05-11T18:00:50.622Z,7.57
2018-05-11T18:03:18.180Z,7.33
2018-05-11T18:05:45.736Z,8.83
2018-05-11T18:08:13.291Z,13.23
2018-05-11T18:10:40.861Z,10.77
2018-05-11T18:13:08.666Z,9.63
2018-05-11T18:15:36.634Z,7.90
2018-05-11T18:18:04.631Z,7.40
2018-05-11T18:20:32.270Z,9.97
2018-05-11T18:23:00.189Z,7.80
2018-05-11T18:25:28.192Z,7.78
2018-05-11T18:27:56.533Z,7.37
2018-05-11T18:30:24.199Z,7.60
2018-05-11T18:32:53.314Z,6.97
2018-05-11T18:35:20.969Z,8.38
2018-05-11T18:37:48.533Z,5.80
2018-05-11T18:40:16.223Z,7.80
2018-05-11T18:42:43.802Z,8.40
2018-05-11T18:45:11.365Z,6.80
2018-05-11T18:47:39.026Z,7.83
2018-05-11T18:50:06.718Z,6.87
2018-05-11T18:52:46.308Z,6.53
2018-05-11T18:55:14.014Z,7.85
2018-05-11T18:57:41.542Z,11.17
2018-05-11T19:00:09.554Z,6.67
2018-05-11T19:02:38.398Z,9.33
2018-05-11T19:05:08.232Z,6.57
2018-05-11T19:07:35.895Z,6.62
2018-05-11T19:10:03.470Z,8.73
2018-05-11T19:12:31.765Z,9.05
2018-05-11T19:14:59.412Z,7.20
2018-05-11T19:17:26.961Z,7.33
2018-05-11T19:19:54.546Z,7.50
2018-05-11T19:22:22.520Z,7.20
2018-05-11T19:24:50.103Z,6.53
2018-05-11T19:27:17.908Z,8.00
2018-05-11T19:29:45.667Z,7.20
2018-05-11T19:32:13.204Z,6.90
2018-05-11T19:34:40.800Z,8.10
2018-05-11T19:37:08.397Z,8.13
2018-05-11T19:39:35.966Z,7.43
2018-05-11T19:42:04.532Z,7.90
2018-05-11T19:44:33.049Z,7.83
2018-05-11T19:47:01.374Z,7.53
2018-05-11T19:49:29.503Z,7.47
2018-05-11T19:51:57.072Z,8.03
2018-05-11T19:54:24.646Z,7.17
2018-05-11T19:56:52.239Z,6.77
2018-05-11T19:59:20.205Z,7.70
2018-05-11T20:01:47.772Z,6.50
2018-05-11T20:04:15.382Z,10.67
2018-05-11T20:06:44.172Z,8.20
2018-05-11T20:09:11.739Z,9.73
2018-05-11T20:11:41.071Z,8.97
2018-05-11T20:14:09.318Z,9.17
2018-05-11T20:16:37.543Z,7.03
2018-05-11T20:19:05.126Z,7.20
2018-05-11T20:21:34.676Z,8.20
2018-05-11T20:24:02.237Z,7.50
2018-05-11T20:26:29.770Z,8.57
2018-05-11T20:28:57.357Z,7.90
2018-05-11T20:31:25.019Z,14.23
2018-05-11T20:33:52.745Z,8.73
2018-05-11T20:36:20.328Z,8.90
2018-05-11T20:38:47.889Z,8.13
2018-05-11T20:41:15.466Z,12.17
2018-05-11T20:43:43.054Z,8.20
2018-05-11T20:46:11.975Z,9.60
2018-05-11T20:48:39.581Z,14.10
2018-05-11T20:51:07.155Z,10.27
2018-05-11T20:53:35.969Z,9.10
2018-05-11T20:56:04.781Z,8.90
2018-05-11T20:58:32.471Z,8.02
2018-05-11T21:03:39.518Z,11.70
2018-05-11T21:06:07.085Z,12.17
2018-05-11T21:08:35.117Z,12.82
2018-05-11T21:11:02.838Z,13.53
2018-05-11T21:13:30.406Z,12.37
2018-05-11T21:15:58.090Z,9.27
2018-05-11T21:18:25.655Z,9.87
2018-05-11T21:20:53.501Z,10.32
2018-05-11T21:23:21.108Z,10.93
2018-05-11T21:25:48.731Z,10.83
2018-05-11T21:28:16.339Z,10.27
2018-05-11T21:30:47.282Z,10.70
2018-05-11T21:33:15.135Z,10.90
2018-05-11T21:35:43.295Z,12.53
2018-05-11T21:38:10.864Z,11.23
2018-05-11T21:40:38.440Z,15.83
2018-05-11T21:43:06.026Z,10.70
2018-05-11T21:45:34.320Z,11.00
2018-05-11T21:48:01.908Z,11.02
2018-05-11T21:50:30.089Z,12.03
2018-05-11T21:52:57.563Z,12.67
2018-05-11T21:55:25.629Z,11.73
2018-05-11T21:57:53.195Z,10.97
2018-05-11T22:00:21.578Z,11.02
2018-05-11T22:02:51.818Z,12.60
2018-05-11T22:05:19.708Z,10.60
2018-05-11T22:07:47.288Z,12.43
2018-05-11T22:10:15.011Z,10.80
2018-05-11T22:12:43.598Z,11.85
2018-05-11T22:15:11.201Z,9.50
2018-05-11T22:17:38.778Z,12.65
2018-05-11T22:20:06.560Z,12.00
2018-05-11T22:22:35.256Z,11.12
2018-05-11T22:25:03.582Z,9.27
2018-05-11T22:27:31.185Z,12.67
2018-05-11T22:29:59.537Z,10.60
2018-05-11T22:32:28.304Z,10.00
2018-05-11T22:34:55.868Z,10.77
2018-05-11T22:37:24.744Z,15.30
2018-05-11T22:39:53.153Z,11.65
2018-05-11T22:42:20.743Z,10.63
2018-05-11T22:44:48.277Z,10.43
2018-05-11T22:47:15.882Z,12.30
2018-05-11T22:49:43.508Z,12.50
2018-05-11T22:52:11.115Z,10.73
2018-05-11T22:54:39.853Z,11.40
2018-05-11T22:57:07.409Z,11.53
2018-05-11T22:59:34.976Z,10.17
2018-05-11T23:02:02.499Z,11.75
2018-05-11T23:04:31.176Z,12.80
2018-05-11T23:06:58.948Z,11.63
2018-05-11T23:09:26.515Z,11.63
2018-05-11T23:11:54.073Z,10.73
2018-05-11T23:14:21.648Z,12.40
2018-05-11T23:16:49.213Z,12.23
2018-05-11T23:19:18.745Z,11.60
2018-05-11T23:21:46.335Z,11.83
2018-05-11T23:24:13.875Z,11.95
2018-05-11T23:26:41.828Z,12.70
2018-05-11T23:29:09.356Z,12.43
2018-05-11T23:31:36.960Z,13.65
2018-05-11T23:34:05.183Z,12.43
2018-05-11T23:36:32.801Z,13.07
2018-05-11T23:39:00.759Z,12.63
2018-05-11T23:41:28.304Z,12.27
2018-05-11T23:43:55.867Z,12.60
2018-05-11T23:46:23.437Z,11.37
2018-05-11T23:48:51.432Z,12.20
2018-05-11T23:51:18.996Z,13.50
2018-05-11T23:53:46.545Z,11.98
2018-05-11T23:56:14.106Z,13.13
2018-05-11T23:58:41.679Z,15.05
